X  Schlie├čen METAR Luftfahrt Wetterdaten     LDPL Pula Airport
Temperatur
29°C Temperatur
13°C Taupunkt
37% Feuchtigkeit



Wind
9 M/S
20 MPS
32 KM/S
17 KTS



70°
ONO
Aktuelle Wetterlage

Klar Klar
Luftdruck 1017.92 (hPa) - 30.06 (inHg)
Sichtweite 6.2 (Meile) - 10 (Km)
Flughafen
Flughafen Code LDPL

Position : Pula Airport
Entfernung: 39 (Km)

Metar:
LDPL 101030Z 07017KT CAVOK 29/13 Q1018 NOSIG

Zeit: 10-08-2022 12:30 CEST